Block Island, RI

3:38 AM EDT on May 23, 2017 (GMT -0400)
Block Island State

Weather History for KBID - May, 2013

Change the Weather History Date:

Sunday, May 26, 2013

  Actual Average Record
Temperature  
Mean Temperature 50 °F -  
Max Temperature 57 °F 63 °F 82 °F (2007)
Min Temperature 44 °F 49 °F 38 °F (1992)
Degree Days  
Heating Degree Days 14    
Moisture  
Dew Point 40 °F    
Average Humidity 63    
Maximum Humidity 76    
Minimum Humidity 54    
Precipitation  
Precipitation 0.00 in - - ()
Sea Level Pressure  
Sea Level Pressure 29.94 in    
Wind  
Wind Speed 15 mph (WNW)    
Max Wind Speed 23 mph    
Max Gust Speed 36 mph    
Visibility 10 miles    
Events      
Averages and records for this station are not official NWS values.
T = Trace of Precipitation, MM = Missing Value Source: NWS Daily Summary

Daily Weather History Graph

Daily Weather History Graph

Search for Another Location

Airport or City:

Trip Planner

Search our weather history database for the weather conditions in past years. The results will help you decide how hot, cold, wet, or windy it might be!

Date:

Astronomy

May. 26, 2013 Rise Set
Actual Time 5:19 AM EDT 8:08 PM EDT
Civil Twilight 4:46 AM EDT 8:40 PM EDT
Nautical Twilight 4:05 AM EDT 9:21 PM EDT
Astronomical Twilight 3:18 AM EDT 10:09 PM EDT
Moon 9:52 PM EDT (5/26) 6:45 AM EDT (5/26)
Length of Visible Light 15h 54m
Length of Day
14h 49m
Waning Gibbous, 97% of the Moon is Illuminated
May 26
Waning Gibbous
May 31
Last Quarter
Jun 8
New
Jun 16
First Quarter
Jun 23
Full

Hourly Weather History & Observations

Time (EDT) Temp. Windchill Dew Point Humidity Pressure Visibility Wind Dir Wind Speed Gust Speed Precip Events Conditions
12:15 AM 44.6 °F 38.1 °F 37.4 °F 76% 29.82 in 10.0 mi NW 13.8 mph 25.3 mph N/A   Overcast
12:35 AM 44.6 °F 37.2 °F 37.4 °F 76% 29.82 in 10.0 mi NW 17.3 mph 29.9 mph N/A   Overcast
12:55 AM 44.6 °F 38.1 °F 37.4 °F 76% 29.82 in 10.0 mi NW 13.8 mph 28.8 mph N/A   Overcast
1:15 AM 46.4 °F 39.8 °F 37.4 °F 71% 29.82 in 10.0 mi WNW 16.1 mph 27.6 mph N/A   Overcast
1:35 AM 46.4 °F 40.4 °F 37.4 °F 71% 29.82 in 10.0 mi WNW 13.8 mph 28.8 mph N/A   Overcast
1:55 AM 46.4 °F 39.5 °F 37.4 °F 71% 29.81 in 10.0 mi WNW 17.3 mph 28.8 mph N/A   Overcast
2:15 AM 46.4 °F 39.5 °F 37.4 °F 71% 29.81 in 10.0 mi WNW 17.3 mph 25.3 mph N/A   Overcast
2:35 AM 46.4 °F 39.8 °F 37.4 °F 71% 29.81 in 10.0 mi WNW 16.1 mph 26.5 mph N/A   Mostly Cloudy
2:55 AM 46.4 °F 39.8 °F 37.4 °F 71% 29.81 in 10.0 mi WNW 16.1 mph 26.5 mph N/A   Overcast
3:15 AM 46.4 °F 39.2 °F 37.4 °F 71% 29.81 in 10.0 mi WNW 18.4 mph 26.5 mph N/A   Overcast
3:35 AM 46.4 °F 39.2 °F 37.4 °F 71% 29.80 in 10.0 mi WNW 18.4 mph 26.5 mph N/A   Overcast
3:55 AM 46.4 °F 39.0 °F 37.4 °F 71% 29.80 in 10.0 mi WNW 19.6 mph 26.5 mph N/A   Overcast
4:15 AM 46.4 °F 39.0 °F 37.4 °F 71% 29.81 in 10.0 mi WNW 19.6 mph 27.6 mph N/A   Overcast
4:35 AM 46.4 °F 39.5 °F 37.4 °F 71% 29.81 in 10.0 mi WNW 17.3 mph 29.9 mph N/A   Overcast
4:55 AM 46.4 °F 40.1 °F 37.4 °F 71% 29.82 in 10.0 mi WNW 15.0 mph 29.9 mph N/A   Overcast
5:15 AM 46.4 °F 39.5 °F 37.4 °F 71% 29.82 in 10.0 mi WNW 17.3 mph 28.8 mph N/A   Overcast
5:35 AM 46.4 °F 39.5 °F 35.6 °F 66% 29.83 in 10.0 mi WNW 17.3 mph 26.5 mph N/A   Overcast
5:55 AM 46.4 °F 39.2 °F 37.4 °F 71% 29.84 in 10.0 mi West 18.4 mph 28.8 mph N/A   Overcast
6:15 AM 48.2 °F - 37.4 °F 66% 29.85 in 10.0 mi WNW 17.3 mph 27.6 mph N/A   Overcast
6:35 AM 48.2 °F - 37.4 °F 66% 29.85 in 10.0 mi West 19.6 mph 26.5 mph N/A   Overcast
6:56 AM 48.2 °F - 37.4 °F 66% 29.86 in 10.0 mi WNW 18.4 mph 25.3 mph N/A   Overcast
7:15 AM 50.0 °F - 39.2 °F 66% 29.86 in 10.0 mi West 19.6 mph 26.5 mph N/A   Overcast
7:35 AM 48.2 °F - 37.4 °F 66% 29.86 in 10.0 mi West 18.4 mph 29.9 mph N/A   Mostly Cloudy
7:55 AM 51.8 °F - 39.2 °F 62% 29.87 in 10.0 mi West 21.9 mph 32.2 mph N/A   Mostly Cloudy
8:15 AM 51.8 °F - 39.2 °F 62% 29.87 in 10.0 mi West 20.7 mph 32.2 mph N/A   Scattered Clouds
8:35 AM 51.8 °F - 39.2 °F 62% 29.87 in 10.0 mi WNW 20.7 mph 29.9 mph N/A   Scattered Clouds
8:55 AM 51.8 °F - 39.2 °F 62% 29.87 in 10.0 mi West 23.0 mph 35.7 mph N/A   Mostly Cloudy
9:15 AM 53.6 °F - 39.2 °F 58% 29.88 in 10.0 mi West 18.4 mph 31.1 mph N/A   Mostly Cloudy
9:35 AM 53.6 °F - 39.2 °F 58% 29.88 in 10.0 mi West 20.7 mph 29.9 mph N/A   Mostly Cloudy
9:55 AM 53.6 °F - 39.2 °F 58% 29.89 in 10.0 mi WNW 12.7 mph 28.8 mph N/A   Overcast
10:15 AM 53.6 °F - 39.2 °F 58% 29.89 in 10.0 mi WNW 15.0 mph 27.6 mph N/A   Overcast
10:35 AM 53.6 °F - 39.2 °F 58% 29.90 in 10.0 mi WNW 19.6 mph 32.2 mph N/A   Overcast
10:55 AM 55.4 °F - 39.2 °F 54% 29.90 in 10.0 mi WNW 18.4 mph 24.2 mph N/A   Mostly Cloudy
11:15 AM 55.4 °F - 39.2 °F 54% 29.91 in 10.0 mi WNW 15.0 mph 24.2 mph N/A   Overcast
11:35 AM 55.4 °F - 39.2 °F 54% 29.92 in 10.0 mi WNW 15.0 mph 23.0 mph N/A   Overcast
11:55 AM 55.4 °F - 41.0 °F 58% 29.92 in 10.0 mi West 10.4 mph 27.6 mph N/A   Overcast
12:15 PM 55.4 °F - 41.0 °F 58% 29.92 in 10.0 mi WNW 15.0 mph 25.3 mph N/A   Overcast
12:35 PM 57.2 °F - 42.8 °F 59% 29.92 in 10.0 mi WNW 13.8 mph 21.9 mph N/A   Overcast
12:55 PM 57.2 °F - 41.0 °F 55% 29.93 in 10.0 mi West 11.5 mph 20.7 mph N/A   Overcast
1:15 PM 55.4 °F - 41.0 °F 58% 29.93 in 10.0 mi WNW 12.7 mph 25.3 mph N/A   Overcast
1:55 PM 57.2 °F - 41.0 °F 55% 29.94 in 10.0 mi WNW 13.8 mph 23.0 mph N/A   Mostly Cloudy
2:15 PM 57.2 °F - 42.8 °F 59% 29.94 in 10.0 mi West 12.7 mph 20.7 mph N/A   Mostly Cloudy
2:35 PM 57.2 °F - 42.8 °F 59% 29.95 in 10.0 mi WNW 13.8 mph 23.0 mph N/A   Overcast
2:55 PM 57.2 °F - 42.8 °F 59% 29.95 in 10.0 mi WNW 16.1 mph 21.9 mph N/A   Mostly Cloudy
3:15 PM 57.2 °F - 42.8 °F 59% 29.95 in 10.0 mi WNW 9.2 mph 17.3 mph N/A   Mostly Cloudy
3:55 PM 57.2 °F - 42.8 °F 59% 29.96 in 10.0 mi NW 9.2 mph 21.9 mph N/A   Mostly Cloudy
4:15 PM 57.2 °F - 42.8 °F 59% 29.97 in 10.0 mi NW 12.7 mph 18.4 mph N/A   Overcast
4:35 PM 57.2 °F - 42.8 °F 59% 29.98 in 10.0 mi NW 9.2 mph 20.7 mph N/A   Scattered Clouds
4:55 PM 57.2 °F - 42.8 °F 59% 29.99 in 10.0 mi WNW 15.0 mph 27.6 mph N/A   Mostly Cloudy
5:15 PM 57.2 °F - 41.0 °F 55% 29.99 in 10.0 mi NW 13.8 mph 23.0 mph N/A   Scattered Clouds
5:35 PM 57.2 °F - 42.8 °F 59% 30.00 in 10.0 mi WNW 11.5 mph 21.9 mph N/A   Partly Cloudy
5:55 PM 55.4 °F - 42.8 °F 63% 30.01 in 10.0 mi NNW 15.0 mph 24.2 mph N/A   Mostly Cloudy
6:15 PM 55.4 °F - 42.8 °F 63% 30.02 in 10.0 mi NW 13.8 mph 18.4 mph N/A   Overcast
6:35 PM 55.4 °F - 42.8 °F 63% 30.04 in 10.0 mi NW 15.0 mph 29.9 mph N/A   Overcast
6:55 PM 55.4 °F - 42.8 °F 63% 30.05 in 10.0 mi NW 15.0 mph 18.4 mph N/A   Overcast
7:15 PM 55.4 °F - 42.8 °F 63% 30.06 in 10.0 mi NW 11.5 mph 18.4 mph N/A   Scattered Clouds
7:35 PM 53.6 °F - 42.8 °F 67% 30.07 in 10.0 mi NW 9.2 mph 17.3 mph N/A   Scattered Clouds
7:55 PM 53.6 °F - 39.2 °F 58% 30.07 in 10.0 mi NW 13.8 mph 21.9 mph N/A   Partly Cloudy
8:15 PM 53.6 °F - 39.2 °F 58% 30.09 in 10.0 mi NW 12.7 mph 25.3 mph N/A   Clear
8:35 PM 53.6 °F - 39.2 °F 58% 30.09 in 10.0 mi NW 11.5 mph 19.6 mph N/A   Clear
8:55 PM 53.6 °F - 39.2 °F 58% 30.11 in 10.0 mi NW 12.7 mph 20.7 mph N/A   Clear
9:15 PM 53.6 °F - 39.2 °F 58% 30.12 in 10.0 mi NW 8.1 mph - N/A   Clear
9:35 PM 53.6 °F - 39.2 °F 58% 30.13 in 10.0 mi NW 10.4 mph 16.1 mph N/A   Clear
9:55 PM 51.8 °F - 39.2 °F 62% 30.13 in 10.0 mi NW 9.2 mph - N/A   Clear
10:15 PM 51.8 °F - 39.2 °F 62% 30.14 in 10.0 mi NW 9.2 mph - N/A   Clear
10:35 PM 51.8 °F - 39.2 °F 62% 30.14 in 10.0 mi NW 8.1 mph - N/A   Clear
10:55 PM 51.8 °F - 39.2 °F 62% 30.15 in 10.0 mi WNW 6.9 mph - N/A   Clear
11:15 PM 51.8 °F - 39.2 °F 62% 30.15 in 10.0 mi West 5.8 mph - N/A   Clear
11:35 PM 50.0 °F - 41.0 °F 71% 30.16 in 10.0 mi West 6.9 mph - N/A   Clear
11:55 PM 50.0 °F - 41.0 °F 71% 30.16 in 10.0 mi West 6.9 mph - N/A   Clear